createdAt,value
2023-02-21T00:00:00.749Z,0.00
2023-02-21T00:01:00.777Z,0.00
2023-02-21T00:02:00.833Z,0.00
2023-02-21T00:03:00.811Z,0.00
2023-02-21T00:04:00.811Z,0.00
2023-02-21T00:05:00.958Z,0.00
2023-02-21T00:06:00.872Z,0.00
2023-02-21T00:07:00.862Z,0.00
2023-02-21T00:08:00.878Z,0.00
2023-02-21T00:09:00.896Z,0.00
2023-02-21T00:10:00.917Z,0.00
2023-02-21T00:11:00.918Z,0.00
2023-02-21T00:12:00.942Z,0.00
2023-02-21T00:13:00.963Z,0.00
2023-02-21T00:14:00.974Z,0.00
2023-02-21T00:15:00.990Z,0.00
2023-02-21T00:16:00.998Z,0.00
2023-02-21T00:17:01.031Z,0.00
2023-02-21T00:18:01.029Z,0.00
2023-02-21T00:19:01.075Z,0.00
2023-02-21T00:20:01.062Z,0.00
2023-02-21T00:21:01.084Z,0.00
2023-02-21T00:22:01.110Z,0.00
2023-02-21T00:23:01.115Z,0.00
2023-02-21T00:24:01.135Z,0.00
2023-02-21T00:25:01.155Z,0.00
2023-02-21T00:26:01.166Z,0.00
2023-02-21T00:27:01.183Z,0.00
2023-02-21T00:28:01.192Z,0.00
2023-02-21T00:29:01.212Z,0.00
2023-02-21T00:30:01.241Z,0.00
2023-02-21T00:31:01.298Z,0.00
2023-02-21T00:32:01.258Z,0.00
2023-02-21T00:33:01.430Z,0.00
2023-02-21T00:34:01.283Z,0.00
2023-02-21T00:35:01.329Z,0.00
2023-02-21T00:36:01.333Z,0.00
2023-02-21T00:37:01.330Z,0.00
2023-02-21T00:38:01.355Z,0.00
2023-02-21T00:39:01.371Z,0.00
2023-02-21T00:40:01.376Z,0.00
2023-02-21T00:41:01.392Z,0.00
2023-02-21T00:42:01.421Z,0.00
2023-02-21T00:43:01.429Z,0.00
2023-02-21T00:44:01.443Z,0.00
2023-02-21T00:45:01.463Z,0.00
2023-02-21T00:46:01.538Z,0.00
2023-02-21T00:47:01.496Z,0.00
2023-02-21T00:48:01.510Z,0.00
2023-02-21T00:49:01.524Z,0.00
2023-02-21T00:50:01.620Z,0.00
2023-02-21T00:51:01.589Z,0.00
2023-02-21T00:52:01.566Z,0.00
2023-02-21T00:53:01.589Z,0.00
2023-02-21T00:54:01.605Z,0.00
2023-02-21T00:55:01.622Z,0.00
2023-02-21T00:56:01.628Z,0.00
2023-02-21T00:57:01.659Z,0.00
2023-02-21T00:58:01.662Z,0.00
2023-02-21T00:59:01.683Z,0.00
2023-02-21T01:00:01.697Z,0.00
2023-02-21T01:01:01.795Z,0.00
2023-02-21T01:02:01.730Z,0.00
2023-02-21T01:03:01.747Z,0.00
2023-02-21T01:04:01.813Z,0.00
2023-02-21T01:05:01.780Z,0.00
2023-02-21T01:06:01.796Z,0.00
2023-02-21T01:07:01.828Z,0.00
2023-02-21T01:08:01.829Z,0.00
2023-02-21T01:09:01.845Z,0.00
2023-02-21T01:10:01.859Z,0.00
2023-02-21T01:11:01.875Z,0.00
2023-02-21T01:12:01.886Z,0.00
2023-02-21T01:13:01.905Z,0.00
2023-02-21T01:14:01.937Z,0.00
2023-02-21T01:15:01.942Z,0.00
2023-02-21T01:16:01.963Z,0.00
2023-02-21T01:17:12.560Z,0.00
2023-02-21T01:18:01.988Z,0.00
2023-02-21T01:19:02.007Z,0.00
2023-02-21T01:20:02.014Z,0.00
2023-02-21T01:21:02.033Z,0.00
2023-02-21T01:22:02.052Z,0.00
2023-02-21T01:23:02.082Z,0.00
2023-02-21T01:24:02.089Z,0.00
2023-02-21T01:25:02.108Z,0.00
2023-02-21T01:26:02.114Z,0.00
2023-02-21T01:27:02.127Z,0.00
2023-02-21T01:28:02.177Z,0.00
2023-02-21T01:29:02.157Z,0.00
2023-02-21T01:30:02.179Z,0.00
2023-02-21T01:31:02.280Z,0.00
2023-02-21T01:32:02.287Z,0.00
2023-02-21T01:33:02.228Z,0.00
2023-02-21T01:34:02.249Z,0.00
2023-02-21T01:35:02.279Z,0.00
2023-02-21T01:36:02.270Z,0.00
2023-02-21T01:37:02.296Z,0.00
2023-02-21T01:38:02.340Z,0.00
2023-02-21T01:39:02.345Z,0.00
2023-02-21T01:40:02.346Z,0.00
2023-02-21T01:41:02.346Z,0.00
2023-02-21T01:42:02.368Z,0.00
2023-02-21T01:43:02.378Z,0.00
2023-02-21T01:44:02.399Z,0.00
2023-02-21T01:45:02.420Z,0.00
2023-02-21T01:46:02.532Z,0.00
2023-02-21T01:47:02.446Z,0.00
2023-02-21T01:48:02.457Z,0.00
2023-02-21T01:49:02.480Z,0.00
2023-02-21T01:50:02.488Z,0.00
2023-02-21T01:51:02.503Z,0.00
2023-02-21T01:52:02.526Z,0.00
2023-02-21T01:53:02.547Z,0.00
2023-02-21T01:54:02.552Z,0.00
2023-02-21T01:55:02.599Z,0.00
2023-02-21T01:56:02.582Z,0.00
2023-02-21T01:57:02.609Z,0.00
2023-02-21T01:58:04.561Z,0.00
2023-02-21T01:59:02.639Z,0.00
2023-02-21T02:00:02.650Z,0.00
2023-02-21T02:01:02.677Z,0.00
2023-02-21T02:02:02.686Z,0.00
2023-02-21T02:03:02.700Z,0.00
2023-02-21T02:04:02.718Z,0.00
2023-02-21T02:05:02.725Z,0.00
2023-02-21T02:06:02.740Z,0.00
2023-02-21T02:07:02.763Z,0.00
2023-02-21T02:08:02.788Z,0.00
2023-02-21T02:09:02.800Z,0.00
2023-02-21T02:10:02.821Z,0.00
2023-02-21T02:11:02.839Z,0.00
2023-02-21T02:12:02.834Z,0.00
2023-02-21T02:13:02.866Z,0.00
2023-02-21T02:14:02.875Z,0.00
2023-02-21T02:15:02.903Z,0.00
2023-02-21T02:16:02.895Z,0.00
2023-02-21T02:17:03.818Z,0.00
2023-02-21T02:18:02.939Z,0.00
2023-02-21T02:19:02.976Z,0.00
2023-02-21T02:20:02.974Z,0.00
2023-02-21T02:21:02.986Z,0.00
2023-02-21T02:22:03.002Z,0.00
2023-02-21T02:23:03.019Z,0.00
2023-02-21T02:24:03.024Z,0.00
2023-02-21T02:25:03.053Z,0.00
2023-02-21T02:26:03.065Z,0.00
2023-02-21T02:27:03.093Z,0.00
2023-02-21T02:28:03.087Z,0.00
2023-02-21T02:29:03.103Z,0.00
2023-02-21T02:30:03.244Z,0.00
2023-02-21T02:31:03.272Z,0.00
2023-02-21T02:32:03.301Z,0.00
2023-02-21T02:33:03.177Z,0.00
2023-02-21T02:34:03.196Z,0.00
2023-02-21T02:35:03.202Z,0.00
2023-02-21T02:36:03.215Z,0.00
2023-02-21T02:37:03.249Z,0.00
2023-02-21T02:38:03.252Z,0.00
2023-02-21T02:39:03.261Z,0.00
2023-02-21T02:40:03.280Z,0.00
2023-02-21T02:41:03.302Z,0.00
2023-02-21T02:42:03.322Z,0.00
2023-02-21T02:43:03.343Z,0.00
2023-02-21T02:44:03.347Z,0.00
2023-02-21T02:45:03.370Z,0.00
2023-02-21T02:46:03.418Z,0.00
2023-02-21T02:47:03.396Z,0.00
2023-02-21T02:48:03.404Z,0.00
2023-02-21T02:49:03.422Z,0.00
2023-02-21T02:50:03.430Z,0.00
2023-02-21T02:51:03.455Z,0.00
2023-02-21T02:52:03.487Z,0.00
2023-02-21T02:53:03.479Z,0.00
2023-02-21T02:54:03.502Z,0.00
2023-02-21T02:55:03.519Z,0.00
2023-02-21T02:56:03.527Z,0.00
2023-02-21T02:57:03.557Z,0.00
2023-02-21T02:58:03.564Z,0.00
2023-02-21T02:59:03.595Z,0.00
2023-02-21T03:00:03.588Z,0.00
2023-02-21T03:01:03.610Z,0.00
2023-02-21T03:02:03.628Z,0.00
2023-02-21T03:03:03.641Z,0.00
2023-02-21T03:04:03.663Z,0.00
2023-02-21T03:05:03.667Z,0.00
2023-02-21T03:06:03.686Z,0.00
2023-02-21T03:07:03.702Z,0.00
2023-02-21T03:08:03.713Z,0.00
2023-02-21T03:09:03.738Z,0.00
2023-02-21T03:10:03.741Z,0.00
2023-02-21T03:11:03.761Z,0.00
2023-02-21T03:12:03.794Z,0.00
2023-02-21T03:13:03.789Z,0.00
2023-02-21T03:14:03.816Z,0.00
2023-02-21T03:15:03.844Z,0.00
2023-02-21T03:16:03.919Z,0.00
2023-02-21T03:17:03.859Z,0.00
2023-02-21T03:18:03.866Z,0.00
2023-02-21T03:19:03.882Z,0.00
2023-02-21T03:20:03.920Z,0.00
2023-02-21T03:21:03.927Z,0.00
2023-02-21T03:22:03.930Z,0.00
2023-02-21T03:23:03.946Z,0.00
2023-02-21T03:24:03.973Z,0.00
2023-02-21T03:25:04.005Z,0.00
2023-02-21T03:26:04.009Z,0.00
2023-02-21T03:27:04.018Z,0.00
2023-02-21T03:28:04.035Z,0.00
2023-02-21T03:29:04.057Z,0.00
2023-02-21T03:30:04.089Z,0.00
2023-02-21T03:31:04.154Z,0.00
2023-02-21T03:32:04.110Z,0.00
2023-02-21T03:33:04.115Z,0.00
2023-02-21T03:34:04.131Z,0.00
2023-02-21T03:35:04.142Z,0.00
2023-02-21T03:36:04.155Z,0.00
2023-02-21T03:37:04.167Z,0.00
2023-02-21T03:38:04.184Z,0.00
2023-02-21T03:39:04.198Z,0.00
2023-02-21T03:40:04.221Z,0.00
2023-02-21T03:41:04.228Z,0.00
2023-02-21T03:42:04.246Z,0.00
2023-02-21T03:43:04.269Z,0.00
2023-02-21T03:44:04.284Z,0.00
2023-02-21T03:45:04.298Z,0.00
2023-02-21T03:46:04.313Z,0.00
2023-02-21T03:47:04.355Z,0.00
2023-02-21T03:48:04.344Z,0.00
2023-02-21T03:49:04.363Z,0.00
2023-02-21T03:50:04.379Z,0.00
2023-02-21T03:51:04.385Z,0.00
2023-02-21T03:52:04.408Z,0.00
2023-02-21T03:53:04.434Z,0.00
2023-02-21T03:54:04.437Z,0.00
2023-02-21T03:55:04.455Z,0.00
2023-02-21T03:56:04.474Z,0.00
2023-02-21T03:57:04.507Z,0.00
2023-02-21T03:58:04.499Z,0.00
2023-02-21T03:59:04.565Z,0.00
2023-02-21T04:00:04.539Z,0.00
2023-02-21T04:01:04.608Z,0.00
2023-02-21T04:02:04.632Z,0.00
2023-02-21T04:03:04.595Z,0.00
2023-02-21T04:04:04.598Z,0.00
2023-02-21T04:05:04.689Z,0.00
2023-02-21T04:06:04.643Z,0.00
2023-02-21T04:07:04.639Z,0.00
2023-02-21T04:08:04.657Z,0.00
2023-02-21T04:09:04.680Z,0.00
2023-02-21T04:10:04.687Z,0.00
2023-02-21T04:11:04.701Z,0.00
2023-02-21T04:12:04.725Z,0.00
2023-02-21T04:13:04.748Z,0.00
2023-02-21T04:14:04.763Z,0.00
2023-02-21T04:15:04.771Z,0.00
2023-02-21T04:16:04.861Z,0.00
2023-02-21T04:17:04.797Z,0.00
2023-02-21T04:18:04.811Z,0.00
2023-02-21T04:19:04.854Z,0.00
2023-02-21T04:20:04.856Z,0.00
2023-02-21T04:21:04.868Z,0.00
2023-02-21T04:22:04.881Z,0.00
2023-02-21T04:23:04.892Z,0.00
2023-02-21T04:24:04.913Z,0.00
2023-02-21T04:25:04.927Z,0.00
2023-02-21T04:26:04.953Z,0.00
2023-02-21T04:27:04.971Z,0.00
2023-02-21T04:28:04.977Z,0.00
2023-02-21T04:29:04.993Z,0.00
2023-02-21T04:30:05.063Z,0.00
2023-02-21T04:31:05.023Z,0.00
2023-02-21T04:32:05.134Z,0.00
2023-02-21T04:33:05.053Z,0.00
2023-02-21T04:34:11.665Z,0.00
2023-02-21T04:35:05.108Z,0.00
2023-02-21T04:36:05.095Z,0.00
2023-02-21T04:37:05.120Z,0.00
2023-02-21T04:38:05.127Z,0.00
2023-02-21T04:39:05.153Z,0.00
2023-02-21T04:40:05.163Z,0.00
2023-02-21T04:41:05.172Z,0.00
2023-02-21T04:42:05.200Z,0.00
2023-02-21T04:43:05.211Z,0.00
2023-02-21T04:44:05.220Z,0.00
2023-02-21T04:45:05.242Z,0.00
2023-02-21T04:46:05.362Z,0.00
2023-02-21T04:47:05.270Z,0.00
2023-02-21T04:48:05.289Z,0.00
2023-02-21T04:49:05.316Z,0.00
2023-02-21T04:50:05.323Z,0.00
2023-02-21T04:51:15.000Z,0.00
2023-02-21T04:52:05.348Z,0.00
2023-02-21T04:53:05.364Z,0.00
2023-02-21T04:54:05.376Z,0.00
2023-02-21T04:55:05.390Z,0.00
2023-02-21T04:56:05.408Z,0.00
2023-02-21T04:57:05.426Z,0.00
2023-02-21T04:58:05.446Z,0.00
2023-02-21T04:59:05.488Z,0.00
2023-02-21T05:00:05.470Z,0.00
2023-02-21T05:01:05.527Z,0.00
2023-02-21T05:02:05.508Z,0.00
2023-02-21T05:03:05.534Z,0.00
2023-02-21T05:04:05.574Z,0.00
2023-02-21T05:05:05.575Z,0.00
2023-02-21T05:06:05.568Z,0.00
2023-02-21T05:07:05.596Z,0.00
2023-02-21T05:08:05.602Z,0.00
2023-02-21T05:09:05.624Z,0.00
2023-02-21T05:10:05.638Z,0.00
2023-02-21T05:11:05.649Z,0.00
2023-02-21T05:12:05.655Z,0.00
2023-02-21T05:13:05.670Z,0.00
2023-02-21T05:14:05.691Z,0.00
2023-02-21T05:15:05.701Z,0.00
2023-02-21T05:16:05.723Z,0.00
2023-02-21T05:17:05.734Z,0.00
2023-02-21T05:18:05.755Z,0.00
2023-02-21T05:19:05.766Z,0.00
2023-02-21T05:20:05.787Z,0.00
2023-02-21T05:21:05.802Z,0.00
2023-02-21T05:22:05.817Z,0.00
2023-02-21T05:23:13.364Z,0.00
2023-02-21T05:24:05.841Z,0.00
2023-02-21T05:25:05.857Z,0.00
2023-02-21T05:26:05.880Z,0.00
2023-02-21T05:27:05.890Z,0.00
2023-02-21T05:28:05.912Z,0.00
2023-02-21T05:29:05.920Z,0.00
2023-02-21T05:30:06.062Z,0.00
2023-02-21T05:31:06.090Z,0.00
2023-02-21T05:32:05.991Z,0.00
2023-02-21T05:33:05.993Z,0.00
2023-02-21T05:34:06.005Z,0.00
2023-02-21T05:35:06.151Z,0.00
2023-02-21T05:36:06.045Z,0.00
2023-02-21T05:37:06.051Z,0.00
2023-02-21T05:38:06.074Z,0.00
2023-02-21T05:39:06.186Z,0.00
2023-02-21T05:40:06.124Z,0.00
2023-02-21T05:41:06.117Z,0.00
2023-02-21T05:42:06.124Z,0.00
2023-02-21T05:43:06.155Z,0.00
2023-02-21T05:44:06.164Z,0.00
2023-02-21T05:45:06.176Z,0.00
2023-02-21T05:46:06.217Z,0.00
2023-02-21T05:47:06.207Z,0.00
2023-02-21T05:48:06.215Z,0.00
2023-02-21T05:49:06.247Z,0.00
2023-02-21T05:50:06.264Z,0.00
2023-02-21T05:51:06.271Z,0.00
2023-02-21T05:52:06.285Z,0.00
2023-02-21T05:53:06.296Z,0.00
2023-02-21T05:54:06.314Z,0.00
2023-02-21T05:55:06.361Z,0.00
2023-02-21T05:56:06.348Z,0.00
2023-02-21T05:57:06.375Z,0.00
2023-02-21T05:58:06.412Z,0.00
2023-02-21T05:59:06.405Z,0.00
2023-02-21T06:00:06.420Z,0.00
2023-02-21T06:01:06.439Z,0.00
2023-02-21T06:02:06.524Z,0.00
2023-02-21T06:03:06.501Z,0.00
2023-02-21T06:04:06.482Z,0.00
2023-02-21T06:05:06.494Z,0.00
2023-02-21T06:06:06.513Z,0.00
2023-02-21T06:07:06.530Z,0.00
2023-02-21T06:08:09.015Z,0.00
2023-02-21T06:09:06.551Z,0.00
2023-02-21T06:10:06.573Z,0.00
2023-02-21T06:11:06.604Z,0.00
2023-02-21T06:12:06.598Z,0.00
2023-02-21T06:13:06.612Z,0.00
2023-02-21T06:14:06.634Z,0.00
2023-02-21T06:15:06.649Z,0.00
2023-02-21T06:16:06.724Z,0.00
2023-02-21T06:17:06.679Z,0.00
2023-02-21T06:18:06.691Z,0.00
2023-02-21T06:19:06.720Z,0.00
2023-02-21T06:20:06.720Z,0.00
2023-02-21T06:21:06.868Z,0.00
2023-02-21T06:22:06.757Z,0.00
2023-02-21T06:23:06.765Z,0.00
2023-02-21T06:24:06.789Z,0.00
2023-02-21T06:25:06.805Z,0.00
2023-02-21T06:26:06.809Z,0.00
2023-02-21T06:27:06.867Z,0.00
2023-02-21T06:28:06.843Z,0.00
2023-02-21T06:29:06.871Z,0.00
2023-02-21T06:30:06.941Z,0.00
2023-02-21T06:31:06.978Z,0.00
2023-02-21T06:32:06.966Z,0.00
2023-02-21T06:33:06.932Z,0.00
2023-02-21T06:34:06.957Z,0.00
2023-02-21T06:35:06.963Z,0.00
2023-02-21T06:36:06.987Z,0.00
2023-02-21T06:37:07.004Z,0.00
2023-02-21T06:38:07.007Z,0.00
2023-02-21T06:39:07.027Z,0.00
2023-02-21T06:40:07.045Z,0.00
2023-02-21T06:41:07.053Z,0.00
2023-02-21T06:42:07.075Z,0.00
2023-02-21T06:43:07.119Z,0.00
2023-02-21T06:44:07.111Z,0.00
2023-02-21T06:45:07.114Z,0.00
2023-02-21T06:46:07.155Z,0.00
2023-02-21T06:47:07.152Z,0.00
2023-02-21T06:48:07.164Z,0.00
2023-02-21T06:49:07.190Z,0.00
2023-02-21T06:50:10.076Z,0.00
2023-02-21T06:51:07.215Z,0.00
2023-02-21T06:52:07.230Z,0.00
2023-02-21T06:53:07.441Z,0.00
2023-02-21T06:54:07.271Z,0.00
2023-02-21T06:55:07.289Z,0.00
2023-02-21T06:56:07.286Z,0.00
2023-02-21T06:57:07.313Z,0.00
2023-02-21T06:58:07.324Z,0.00
2023-02-21T06:59:07.372Z,0.00
2023-02-21T07:00:07.392Z,0.00
2023-02-21T07:01:07.363Z,0.00
2023-02-21T07:02:07.391Z,0.00
2023-02-21T07:03:07.393Z,0.00
2023-02-21T07:04:07.416Z,0.00
2023-02-21T07:05:07.427Z,0.00
2023-02-21T07:06:07.449Z,0.00
2023-02-21T07:07:07.455Z,0.00
2023-02-21T07:08:07.483Z,0.00
2023-02-21T07:09:07.514Z,0.00
2023-02-21T07:10:07.502Z,0.00
2023-02-21T07:11:07.537Z,0.00
2023-02-21T07:12:07.538Z,0.00
2023-02-21T07:13:07.563Z,0.00
2023-02-21T07:14:07.577Z,0.00
2023-02-21T07:15:07.596Z,0.00
2023-02-21T07:16:07.605Z,0.00
2023-02-21T07:17:07.621Z,0.00
2023-02-21T07:18:07.638Z,0.00
2023-02-21T07:19:07.642Z,0.00
2023-02-21T07:20:07.666Z,0.00
2023-02-21T07:21:07.676Z,0.00
2023-02-21T07:22:07.685Z,0.00
2023-02-21T07:23:07.706Z,0.00
2023-02-21T07:24:07.721Z,0.00
2023-02-21T07:25:07.737Z,0.00
2023-02-21T07:26:07.753Z,0.00
2023-02-21T07:27:07.762Z,0.00
2023-02-21T07:28:07.774Z,0.00
2023-02-21T07:29:07.845Z,0.00
2023-02-21T07:30:07.858Z,0.00
2023-02-21T07:31:07.941Z,0.00
2023-02-21T07:32:07.894Z,0.00
2023-02-21T07:33:07.854Z,0.00
2023-02-21T07:34:07.875Z,0.00
2023-02-21T07:35:07.884Z,0.00
2023-02-21T07:36:07.898Z,0.00
2023-02-21T07:37:07.922Z,0.00
2023-02-21T07:38:07.931Z,0.00
2023-02-21T07:39:07.952Z,0.00
2023-02-21T07:40:07.969Z,0.00
2023-02-21T07:41:07.976Z,0.00
2023-02-21T07:42:08.008Z,0.00
2023-02-21T07:43:08.015Z,0.00
2023-02-21T07:44:08.037Z,0.00
2023-02-21T07:45:08.039Z,0.00
2023-02-21T07:46:08.081Z,0.00
2023-02-21T07:47:08.100Z,0.00
2023-02-21T07:48:08.094Z,0.00
2023-02-21T07:49:08.104Z,0.00
2023-02-21T07:50:08.116Z,0.00
2023-02-21T07:51:08.142Z,0.00
2023-02-21T07:52:08.155Z,0.00
2023-02-21T07:53:09.695Z,0.00
2023-02-21T07:54:08.180Z,0.00
2023-02-21T07:55:08.212Z,0.00
2023-02-21T07:56:08.232Z,0.00
2023-02-21T07:57:08.226Z,0.00
2023-02-21T07:58:08.241Z,0.00
2023-02-21T07:59:08.269Z,0.00
2023-02-21T08:00:08.277Z,0.00
2023-02-21T08:01:08.293Z,0.00
2023-02-21T08:02:08.302Z,0.00
2023-02-21T08:03:08.342Z,0.00
2023-02-21T08:04:08.340Z,0.00
2023-02-21T08:05:08.405Z,0.00
2023-02-21T08:06:08.384Z,0.00
2023-02-21T08:07:08.402Z,0.00
2023-02-21T08:08:08.402Z,0.00
2023-02-21T08:09:08.409Z,0.00
2023-02-21T08:10:08.423Z,0.00
2023-02-21T08:11:08.453Z,0.00
2023-02-21T08:12:08.457Z,0.00
2023-02-21T08:13:08.477Z,0.00
2023-02-21T08:14:08.499Z,0.00
2023-02-21T08:15:08.508Z,0.00
2023-02-21T08:16:08.549Z,0.00
2023-02-21T08:17:08.538Z,0.00
2023-02-21T08:18:08.553Z,0.00
2023-02-21T08:19:08.613Z,0.00
2023-02-21T08:20:08.590Z,0.00
2023-02-21T08:21:08.598Z,0.00
2023-02-21T08:22:08.604Z,0.00
2023-02-21T08:23:08.627Z,0.00
2023-02-21T08:24:08.643Z,0.00
2023-02-21T08:25:08.658Z,0.00
2023-02-21T08:26:08.669Z,0.00
2023-02-21T08:27:08.689Z,0.00
2023-02-21T08:28:08.697Z,0.00
2023-02-21T08:29:08.719Z,0.00
2023-02-21T08:30:08.785Z,0.00
2023-02-21T08:31:08.781Z,0.00
2023-02-21T08:32:08.792Z,0.00
2023-02-21T08:33:08.772Z,0.00
2023-02-21T08:34:08.824Z,0.00
2023-02-21T08:35:08.840Z,0.00
2023-02-21T08:36:08.819Z,0.00
2023-02-21T08:37:08.836Z,0.00
2023-02-21T08:38:08.869Z,0.00
2023-02-21T08:39:08.871Z,0.00
2023-02-21T08:40:08.896Z,0.00
2023-02-21T08:41:08.896Z,0.00
2023-02-21T08:42:08.919Z,0.00
2023-02-21T08:43:09.039Z,0.00
2023-02-21T08:44:08.949Z,0.00
2023-02-21T08:45:08.969Z,0.00
2023-02-21T08:46:08.980Z,0.00
2023-02-21T08:47:08.997Z,0.00
2023-02-21T08:48:09.015Z,0.00
2023-02-21T08:49:09.027Z,0.00
2023-02-21T08:50:09.055Z,0.00
2023-02-21T08:51:09.075Z,0.00
2023-02-21T08:52:09.078Z,0.00
2023-02-21T08:53:09.089Z,0.00
2023-02-21T08:54:09.105Z,0.00
2023-02-21T08:55:09.122Z,0.00
2023-02-21T08:56:09.128Z,0.00
2023-02-21T08:57:09.155Z,0.00
2023-02-21T08:58:09.168Z,0.00
2023-02-21T08:59:09.246Z,0.00
2023-02-21T09:00:09.195Z,0.00
2023-02-21T09:01:09.258Z,0.00
2023-02-21T09:02:09.317Z,0.00
2023-02-21T09:03:09.240Z,0.00
2023-02-21T09:04:09.260Z,0.00
2023-02-21T09:05:09.272Z,0.00
2023-02-21T09:06:09.287Z,0.00
2023-02-21T09:07:09.331Z,0.00
2023-02-21T09:08:09.314Z,0.00
2023-02-21T09:09:09.331Z,0.00
2023-02-21T09:10:09.352Z,0.00
2023-02-21T09:11:09.370Z,0.00
2023-02-21T09:12:09.382Z,0.00
2023-02-21T09:13:09.391Z,0.00
2023-02-21T09:14:09.408Z,0.00
2023-02-21T09:15:09.423Z,0.00
2023-02-21T09:16:09.553Z,0.00
2023-02-21T09:17:09.560Z,0.00
2023-02-21T09:18:09.475Z,0.00
2023-02-21T09:19:09.484Z,0.00
2023-02-21T09:20:09.513Z,0.00
2023-02-21T09:21:09.552Z,0.00
2023-02-21T09:22:09.534Z,0.00
2023-02-21T09:23:09.574Z,0.00
2023-02-21T09:24:09.562Z,0.00
2023-02-21T09:25:09.576Z,0.00
2023-02-21T09:26:09.593Z,0.00
2023-02-21T09:27:09.608Z,0.00
2023-02-21T09:28:09.631Z,0.00
2023-02-21T09:29:09.638Z,0.00
2023-02-21T09:30:09.677Z,0.00
2023-02-21T09:31:09.679Z,0.00
2023-02-21T09:32:09.707Z,0.00
2023-02-21T09:33:09.702Z,0.00
2023-02-21T09:34:09.722Z,0.00
2023-02-21T09:35:09.737Z,0.00
2023-02-21T09:36:09.750Z,0.00
2023-02-21T09:37:09.777Z,0.00
2023-02-21T09:38:09.782Z,0.00
2023-02-21T09:39:09.826Z,0.00
2023-02-21T09:40:09.819Z,0.00
2023-02-21T09:41:09.830Z,0.00
2023-02-21T09:42:09.841Z,0.00
2023-02-21T09:43:09.859Z,0.00
2023-02-21T09:44:09.876Z,0.00
2023-02-21T09:45:09.886Z,0.00
2023-02-21T09:46:09.958Z,0.00
2023-02-21T09:47:09.926Z,0.00
2023-02-21T09:48:09.938Z,0.00
2023-02-21T09:49:09.947Z,0.00
2023-02-21T09:50:11.219Z,0.00
2023-02-21T09:51:09.984Z,0.00
2023-02-21T09:52:09.998Z,0.00
2023-02-21T09:53:10.109Z,0.00
2023-02-21T09:54:10.020Z,0.00
2023-02-21T09:55:10.059Z,0.00
2023-02-21T09:56:10.053Z,0.00
2023-02-21T09:57:10.065Z,0.00
2023-02-21T09:58:10.080Z,0.00
2023-02-21T09:59:10.096Z,0.00
2023-02-21T10:00:10.114Z,0.00
2023-02-21T10:01:10.239Z,4.00
2023-02-21T10:02:10.149Z,4.00
2023-02-21T10:03:10.164Z,4.00
2023-02-21T10:04:10.179Z,4.00
2023-02-21T10:05:10.196Z,0.00
2023-02-21T10:06:10.209Z,0.00
2023-02-21T10:07:10.219Z,4.00
2023-02-21T10:08:10.243Z,8.00
2023-02-21T10:09:10.251Z,4.00
2023-02-21T10:10:10.270Z,8.00
2023-02-21T10:11:10.296Z,12.00
2023-02-21T10:12:10.293Z,4.00
2023-02-21T10:13:10.313Z,4.00
2023-02-21T10:14:10.328Z,4.00
2023-02-21T10:15:10.338Z,4.00
2023-02-21T10:16:10.426Z,4.00
2023-02-21T10:17:10.379Z,8.00
2023-02-21T10:18:10.389Z,12.00
2023-02-21T10:19:10.407Z,12.00
2023-02-21T10:20:10.414Z,8.00
2023-02-21T10:21:10.434Z,12.00
2023-02-21T10:22:10.458Z,8.00
2023-02-21T10:23:10.467Z,12.00
2023-02-21T10:24:10.483Z,8.00
2023-02-21T10:25:10.500Z,8.00
2023-02-21T10:26:10.517Z,8.00
2023-02-21T10:27:10.540Z,16.00
2023-02-21T10:28:10.538Z,20.00
2023-02-21T10:29:10.552Z,12.00
2023-02-21T10:30:10.702Z,12.00
2023-02-21T10:31:10.669Z,12.00
2023-02-21T10:32:10.664Z,20.00
2023-02-21T10:33:10.620Z,16.00
2023-02-21T10:34:10.628Z,28.00
2023-02-21T10:35:10.643Z,24.00
2023-02-21T10:36:10.659Z,16.00
2023-02-21T10:37:10.725Z,8.00
2023-02-21T10:38:10.690Z,8.00
2023-02-21T10:39:10.707Z,12.00
2023-02-21T10:40:10.729Z,20.00
2023-02-21T10:41:10.745Z,24.00
2023-02-21T10:42:10.760Z,20.00
2023-02-21T10:43:10.790Z,16.00
2023-02-21T10:44:10.812Z,20.00
2023-02-21T10:45:10.798Z,16.00
2023-02-21T10:46:10.871Z,16.00
2023-02-21T10:47:10.826Z,12.00
2023-02-21T10:48:10.851Z,8.00
2023-02-21T10:49:10.865Z,4.00
2023-02-21T10:50:10.878Z,8.00
2023-02-21T10:51:10.898Z,8.00
2023-02-21T10:52:10.908Z,8.00
2023-02-21T10:53:10.962Z,8.00
2023-02-21T10:54:10.940Z,8.00
2023-02-21T10:55:23.051Z,4.00
2023-02-21T10:56:10.972Z,4.00
2023-02-21T10:57:10.986Z,4.00
2023-02-21T10:58:11.009Z,8.00
2023-02-21T10:59:11.029Z,4.00
2023-02-21T11:00:11.026Z,8.00
2023-02-21T11:01:11.083Z,8.00
2023-02-21T11:02:11.157Z,4.00
2023-02-21T11:03:11.072Z,8.00
2023-02-21T11:04:11.098Z,8.00
2023-02-21T11:05:11.104Z,8.00
2023-02-21T11:06:11.119Z,8.00
2023-02-21T11:07:11.138Z,4.00
2023-02-21T11:08:11.158Z,4.00
2023-02-21T11:09:11.174Z,4.00
2023-02-21T11:10:11.187Z,4.00
2023-02-21T11:11:11.229Z,4.00
2023-02-21T11:12:11.219Z,8.00
2023-02-21T11:13:11.230Z,4.00
2023-02-21T11:14:11.250Z,4.00
2023-02-21T11:15:11.287Z,4.00
2023-02-21T11:16:11.332Z,4.00
2023-02-21T11:17:14.058Z,4.00
2023-02-21T11:18:11.311Z,4.00
2023-02-21T11:19:11.318Z,4.00
2023-02-21T11:20:11.341Z,4.00
2023-02-21T11:21:11.361Z,4.00
2023-02-21T11:22:11.372Z,4.00
2023-02-21T11:23:11.382Z,4.00
2023-02-21T11:24:11.406Z,4.00
2023-02-21T11:25:11.417Z,4.00
2023-02-21T11:26:11.449Z,8.00
2023-02-21T11:27:11.453Z,8.00
2023-02-21T11:28:11.463Z,4.00
2023-02-21T11:29:11.478Z,4.00
2023-02-21T11:30:11.505Z,4.00
2023-02-21T11:31:11.607Z,4.00
2023-02-21T11:32:11.554Z,4.00
2023-02-21T11:33:11.542Z,4.00
2023-02-21T11:34:11.550Z,4.00
2023-02-21T11:35:11.573Z,8.00
2023-02-21T11:36:11.594Z,8.00
2023-02-21T11:37:11.597Z,8.00
2023-02-21T11:38:11.612Z,8.00
2023-02-21T11:39:11.628Z,8.00
2023-02-21T11:40:11.656Z,8.00
2023-02-21T11:41:11.663Z,4.00
2023-02-21T11:42:11.674Z,4.00
2023-02-21T11:43:11.699Z,4.00
2023-02-21T11:44:11.707Z,4.00
2023-02-21T11:45:11.730Z,4.00
2023-02-21T11:46:11.781Z,4.00
2023-02-21T11:47:11.809Z,4.00
2023-02-21T11:48:11.769Z,4.00
2023-02-21T11:49:11.784Z,4.00
2023-02-21T11:50:11.806Z,4.00
2023-02-21T11:51:11.824Z,4.00
2023-02-21T11:52:11.834Z,4.00
2023-02-21T11:53:11.854Z,4.00
2023-02-21T11:54:11.867Z,4.00
2023-02-21T11:55:11.877Z,4.00
2023-02-21T11:56:11.891Z,4.00
2023-02-21T11:57:11.912Z,4.00
2023-02-21T11:58:11.920Z,8.00
2023-02-21T11:59:11.937Z,8.00
2023-02-21T12:00:11.959Z,8.00
2023-02-21T12:01:12.371Z,4.00
2023-02-21T12:02:12.017Z,8.00
2023-02-21T12:03:12.016Z,8.00
2023-02-21T12:04:12.020Z,8.00
2023-02-21T12:05:12.033Z,8.00
2023-02-21T12:06:12.130Z,8.00
2023-02-21T12:07:12.065Z,8.00
2023-02-21T12:08:12.083Z,8.00
2023-02-21T12:09:12.104Z,8.00
2023-02-21T12:10:12.109Z,8.00
2023-02-21T12:11:12.130Z,8.00
2023-02-21T12:12:12.137Z,8.00
2023-02-21T12:13:12.152Z,8.00
2023-02-21T12:14:12.163Z,4.00
2023-02-21T12:15:12.181Z,8.00
2023-02-21T12:16:12.288Z,4.00
2023-02-21T12:17:14.698Z,4.00
2023-02-21T12:18:12.232Z,4.00
2023-02-21T12:19:12.267Z,8.00
2023-02-21T12:20:12.261Z,4.00
2023-02-21T12:21:12.468Z,4.00
2023-02-21T12:22:12.292Z,4.00
2023-02-21T12:23:12.309Z,8.00
2023-02-21T12:24:12.317Z,8.00
2023-02-21T12:25:12.345Z,8.00
2023-02-21T12:26:12.362Z,4.00
2023-02-21T12:27:12.388Z,4.00
2023-02-21T12:28:13.947Z,8.00
2023-02-21T12:29:12.402Z,16.00
2023-02-21T12:30:12.499Z,8.00
2023-02-21T12:31:12.542Z,8.00
2023-02-21T12:32:12.467Z,8.00
2023-02-21T12:33:12.466Z,12.00
2023-02-21T12:34:12.480Z,12.00
2023-02-21T12:35:12.511Z,20.00
2023-02-21T12:36:12.533Z,12.00
2023-02-21T12:37:12.521Z,8.00
2023-02-21T12:38:12.541Z,8.00
2023-02-21T12:39:12.556Z,12.00
2023-02-21T12:40:12.580Z,12.00
2023-02-21T12:41:12.678Z,8.00
2023-02-21T12:42:12.607Z,16.00
2023-02-21T12:43:12.623Z,12.00
2023-02-21T12:44:12.641Z,8.00
2023-02-21T12:45:12.648Z,20.00
2023-02-21T12:46:12.691Z,20.00
2023-02-21T12:47:12.680Z,16.00
2023-02-21T12:48:12.700Z,12.00
2023-02-21T12:49:12.717Z,12.00
2023-02-21T12:50:12.725Z,12.00
2023-02-21T12:51:12.802Z,8.00
2023-02-21T12:52:12.762Z,8.00
2023-02-21T12:53:12.772Z,8.00
2023-02-21T12:54:12.795Z,8.00
2023-02-21T12:55:12.802Z,8.00
2023-02-21T12:56:12.826Z,8.00
2023-02-21T12:57:12.840Z,8.00
2023-02-21T12:58:12.861Z,8.00
2023-02-21T12:59:12.864Z,8.00
2023-02-21T13:00:12.922Z,8.00
2023-02-21T13:01:13.134Z,8.00
2023-02-21T13:02:12.910Z,8.00
2023-02-21T13:03:12.963Z,8.00
2023-02-21T13:04:12.948Z,8.00
2023-02-21T13:05:12.956Z,8.00
2023-02-21T13:06:12.970Z,12.00
2023-02-21T13:07:13.030Z,8.00
2023-02-21T13:08:13.009Z,8.00
2023-02-21T13:09:13.033Z,8.00
2023-02-21T13:10:13.038Z,8.00
2023-02-21T13:11:13.528Z,8.00
2023-02-21T13:12:13.070Z,8.00
2023-02-21T13:13:13.080Z,8.00
2023-02-21T13:14:13.099Z,8.00
2023-02-21T13:15:13.113Z,8.00
2023-02-21T13:16:13.333Z,12.00
2023-02-21T13:17:16.254Z,8.00